Time;durP1;ratioP1;P1;durP2;ratioP2;P2;SDS_P1;SDS_P2;PMS_P1;PMS_P2;Temp;Humidity;BMP_temperature;BMP_pressure;BME280_temperature;BME280_humidity;BME280_pressure;Samples;Min_cycle;Max_cycle;Signal;HPM_P1;HPM_P2
2023/07/24 00:02:14;;;;;;;7.40;6.20;;;23.80;26.30;;;;;;10480063;28;20256;-77
2023/07/24 00:07:17;;;;;;;8.63;7.17;;;23.70;26.10;;;;;;10477490;28;20328;-76
2023/07/24 00:12:22;;;;;;;8.03;7.17;;;23.60;26.10;;;;;;10478732;28;20317;-76
2023/07/24 00:17:26;;;;;;;8.00;6.83;;;23.50;26.60;;;;;;10485653;28;20228;-77
2023/07/24 00:22:29;;;;;;;11.73;6.70;;;23.40;27.00;;;;;;10477213;28;20227;-75
2023/07/24 00:27:33;;;;;;;7.37;6.30;;;23.40;26.40;;;;;;10471800;28;20239;-77
2023/07/24 00:32:37;;;;;;;10.33;6.90;;;23.30;26.90;;;;;;10486047;28;20248;-75
2023/07/24 00:37:40;;;;;;;9.07;6.33;;;23.20;26.80;;;;;;10483795;28;20823;-77
2023/07/24 00:42:49;;;;;;;9.97;7.33;;;23.30;26.70;;;;;;10483559;28;20222;-76
2023/07/24 00:47:52;;;;;;;8.17;6.40;;;23.30;27.50;;;;;;10472677;28;20262;-76
2023/07/24 00:52:56;;;;;;;8.10;7.07;;;23.30;26.80;;;;;;10478638;28;20777;-77
2023/07/24 00:58:01;;;;;;;7.70;6.63;;;23.30;27.00;;;;;;10477371;28;20236;-78
2023/07/24 01:03:04;;;;;;;7.80;5.93;;;23.30;27.50;;;;;;10482587;28;20724;-75
2023/07/24 01:08:08;;;;;;;7.33;6.13;;;23.20;27.10;;;;;;10478443;28;20543;-77
2023/07/24 01:13:20;;;;;;;6.87;6.13;;;23.20;27.20;;;;;;10476744;28;20239;-77
2023/07/24 01:18:25;;;;;;;9.07;6.73;;;23.20;27.50;;;;;;10474533;28;20315;-76
2023/07/24 01:23:45;;;;;;;10.07;6.67;;;23.20;27.50;;;;;;10484425;28;20331;-76
2023/07/24 01:28:50;;;;;;;8.37;6.80;;;23.20;27.50;;;;;;10484157;28;20232;-77
2023/07/24 01:33:53;;;;;;;8.83;6.70;;;23.20;27.50;;;;;;10485005;28;20220;-76
2023/07/24 01:38:57;;;;;;;7.87;7.07;;;23.10;27.40;;;;;;10484800;28;20228;-77
2023/07/24 01:44:02;;;;;;;10.43;7.20;;;23.10;27.40;;;;;;10478610;28;20302;-76
2023/07/24 01:49:05;;;;;;;8.60;6.70;;;23.10;27.60;;;;;;10468242;28;20595;-78
2023/07/24 01:54:08;;;;;;;8.23;6.93;;;22.90;27.30;;;;;;10477921;28;20311;-76
2023/07/24 01:59:13;;;;;;;7.93;6.90;;;22.90;27.70;;;;;;10487519;28;20689;-78
2023/07/24 02:04:16;;;;;;;8.67;6.83;;;22.80;28.20;;;;;;10486137;28;20229;-77
2023/07/24 02:09:19;;;;;;;10.03;7.23;;;22.80;28.20;;;;;;10484067;28;20579;-76
2023/07/24 02:14:24;;;;;;;8.60;7.37;;;22.80;28.80;;;;;;10480878;28;20255;-77
2023/07/24 02:19:27;;;;;;;8.47;7.40;;;22.80;28.80;;;;;;10472784;28;20590;-78
2023/07/24 02:24:30;;;;;;;8.77;6.90;;;22.70;28.20;;;;;;10491921;28;20886;-77
2023/07/24 02:29:35;;;;;;;9.57;6.60;;;22.70;28.40;;;;;;10494836;28;20576;-77
2023/07/24 02:34:38;;;;;;;12.10;6.97;;;22.60;28.90;;;;;;10479993;28;20243;-77
2023/07/24 02:39:42;;;;;;;8.70;7.83;;;22.60;28.80;;;;;;10494234;28;20315;-76
2023/07/24 02:44:46;;;;;;;8.07;7.27;;;22.60;28.90;;;;;;10486759;28;20228;-77
2023/07/24 02:49:50;;;;;;;9.27;7.77;;;22.50;29.50;;;;;;10484568;28;20692;-77
2023/07/24 02:54:53;;;;;;;9.03;7.40;;;22.50;29.10;;;;;;10490440;28;20262;-77
2023/07/24 02:59:57;;;;;;;9.43;7.67;;;22.40;29.10;;;;;;10489322;28;20323;-76
2023/07/24 03:05:00;;;;;;;11.03;7.17;;;22.30;29.70;;;;;;10493535;28;20300;-76
2023/07/24 03:10:04;;;;;;;7.87;6.80;;;22.30;29.40;;;;;;10493945;28;20307;-77
2023/07/24 03:15:10;;;;;;;9.13;7.20;;;22.40;29.70;;;;;;10491447;28;20256;-78
2023/07/24 03:20:15;;;;;;;9.57;7.43;;;22.30;29.80;;;;;;10489582;28;20270;-75
2023/07/24 03:25:19;;;;;;;8.60;7.33;;;22.20;30.30;;;;;;10498732;28;20232;-75
2023/07/24 03:30:23;;;;;;;8.07;7.20;;;22.00;30.10;;;;;;10500279;28;20259;-78
2023/07/24 03:35:27;;;;;;;8.23;7.03;;;21.90;31.60;;;;;;10496633;28;20254;-79
2023/07/24 03:40:30;;;;;;;10.40;7.30;;;21.80;31.30;;;;;;10499875;28;20246;-78
2023/07/24 03:45:34;;;;;;;11.20;7.83;;;21.90;31.70;;;;;;10503904;28;20235;-78
2023/07/24 03:50:38;;;;;;;9.90;7.37;;;21.90;32.70;;;;;;10491900;28;20231;-78
2023/07/24 03:55:41;;;;;;;9.80;7.80;;;22.00;32.00;;;;;;10490999;28;20254;-78
2023/07/24 04:00:46;;;;;;;10.03;7.63;;;21.90;31.90;;;;;;10491507;28;20228;-78
2023/07/24 04:05:49;;;;;;;8.90;7.43;;;21.80;33.00;;;;;;10489200;28;20248;-79
2023/07/24 04:10:52;;;;;;;9.17;7.67;;;21.60;32.40;;;;;;10489227;28;20647;-78
2023/07/24 04:15:59;;;;;;;9.50;7.80;;;21.40;33.10;;;;;;10493910;28;20256;-79
2023/07/24 04:21:02;;;;;;;9.07;7.30;;;21.30;34.10;;;;;;10496102;28;20592;-78
2023/07/24 04:26:05;;;;;;;8.97;8.07;;;21.20;33.60;;;;;;10489657;28;20323;-79
2023/07/24 04:31:10;;;;;;;9.77;8.77;;;21.30;34.00;;;;;;10492150;28;20259;-78
2023/07/24 04:36:13;;;;;;;8.00;6.97;;;21.30;34.90;;;;;;10484599;28;20681;-77
2023/07/24 04:41:20;;;;;;;10.47;7.77;;;21.20;34.10;;;;;;10490798;28;20263;-78
2023/07/24 04:46:25;;;;;;;9.87;8.07;;;21.20;34.80;;;;;;10484316;28;20236;-76
2023/07/24 04:51:28;;;;;;;8.87;7.97;;;21.20;36.00;;;;;;10472383;28;20278;-74
2023/07/24 04:56:31;;;;;;;8.67;7.70;;;21.20;35.30;;;;;;10479774;28;20224;-74
2023/07/24 05:01:36;;;;;;;8.57;7.27;;;21.20;35.30;;;;;;10478754;28;20228;-74
2023/07/24 05:06:39;;;;;;;8.53;7.63;;;21.30;36.50;;;;;;10466688;28;20225;-74
2023/07/24 05:11:44;;;;;;;8.77;7.63;;;21.40;36.10;;;;;;10475434;28;20296;-74
2023/07/24 05:16:49;;;;;;;10.00;7.27;;;21.40;35.90;;;;;;10484156;28;20266;-74
2023/07/24 05:21:52;;;;;;;11.23;7.97;;;21.50;37.20;;;;;;10464131;28;20710;-74
2023/07/24 05:26:55;;;;;;;11.10;8.77;;;21.60;36.30;;;;;;10478406;28;20224;-75
2023/07/24 05:32:00;;;;;;;9.43;8.27;;;21.80;36.90;;;;;;10476341;28;20224;-75
2023/07/24 05:37:03;;;;;;;8.97;7.03;;;21.80;38.00;;;;;;10477196;28;20220;-74
2023/07/24 05:42:07;;;;;;;9.53;7.60;;;21.90;36.60;;;;;;10482738;28;20538;-74
2023/07/24 05:47:11;;;;;;;9.47;8.17;;;22.00;37.00;;;;;;10479960;28;20224;-74
2023/07/24 05:52:17;;;;;;;9.47;8.03;;;22.10;38.30;;;;;;10486317;28;20224;-75
2023/07/24 05:57:21;;;;;;;10.63;8.80;;;22.20;37.20;;;;;;10474684;28;20228;-75
2023/07/24 06:02:25;;;;;;;9.37;8.03;;;22.30;37.30;;;;;;10486380;28;20235;-74
2023/07/24 06:07:29;;;;;;;10.20;9.07;;;22.40;38.50;;;;;;10474137;28;20612;-74
2023/07/24 06:12:32;;;;;;;9.43;8.43;;;22.40;37.60;;;;;;10448168;28;20260;-74
2023/07/24 06:17:36;;;;;;;10.93;9.23;;;22.50;38.00;;;;;;10455945;28;20609;-74
2023/07/24 06:22:40;;;;;;;10.13;8.53;;;22.50;38.80;;;;;;10452922;28;20224;-74
2023/07/24 06:27:43;;;;;;;9.43;8.27;;;22.60;38.60;;;;;;10454084;28;20232;-74
2023/07/24 06:32:47;;;;;;;10.17;8.33;;;22.70;38.90;;;;;;10454289;28;20303;-73
2023/07/24 06:37:50;;;;;;;9.70;8.70;;;22.70;39.50;;;;;;10458462;28;20605;-73
2023/07/24 06:42:54;;;;;;;9.80;8.70;;;22.70;38.90;;;;;;10454247;28;20755;-73
2023/07/24 06:47:58;;;;;;;10.33;9.00;;;22.80;39.00;;;;;;10464227;28;20721;-74
2023/07/24 06:53:01;;;;;;;11.43;9.10;;;22.90;40.00;;;;;;10457475;28;20224;-74
2023/07/24 06:58:05;;;;;;;10.87;8.80;;;23.00;39.10;;;;;;10455389;28;20344;-74
2023/07/24 07:03:09;;;;;;;11.03;9.13;;;23.10;39.20;;;;;;10458611;28;20233;-74
2023/07/24 07:08:12;;;;;;;10.47;9.10;;;23.10;40.10;;;;;;10457376;28;20751;-73
2023/07/24 07:13:16;;;;;;;9.93;8.80;;;23.20;39.30;;;;;;10458995;28;20231;-74
2023/07/24 07:18:20;;;;;;;10.07;8.97;;;23.30;39.40;;;;;;10453914;28;20236;-75
2023/07/24 07:23:23;;;;;;;12.27;9.67;;;23.30;39.50;;;;;;10456791;28;20307;-78
2023/07/24 07:28:26;;;;;;;12.23;10.07;;;23.30;39.40;;;;;;10470101;28;20307;-75
2023/07/24 07:33:31;;;;;;;12.60;8.60;;;23.20;39.30;;;;;;10465473;28;20220;-73
2023/07/24 07:38:35;;;;;;;9.40;7.77;;;23.00;40.90;;;;;;10471981;28;20225;-75
2023/07/24 07:43:38;;;;;;;10.77;8.27;;;22.60;40.00;;;;;;10466099;28;20231;-78
2023/07/24 07:48:43;;;;;;;12.00;7.63;;;22.40;40.50;;;;;;10476382;28;20281;-77
2023/07/24 07:53:46;;;;;;;8.70;7.60;;;22.20;41.90;;;;;;10473620;28;20224;-77
2023/07/24 07:58:50;;;;;;;9.67;8.20;;;22.10;41.20;;;;;;10468322;28;20692;-79
2023/07/24 08:03:54;;;;;;;7.80;7.00;;;22.10;41.40;;;;;;10472176;28;20228;-76
2023/07/24 08:08:57;;;;;;;9.87;6.53;;;22.00;42.60;;;;;;10469805;28;20242;-75
2023/07/24 08:14:07;;;;;;;7.07;6.00;;;21.90;42.00;;;;;;10477129;28;20482;-77
2023/07/24 08:19:12;;;;;;;9.37;6.27;;;21.80;42.20;;;;;;10476275;28;20708;-76
2023/07/24 08:24:15;;;;;;;8.53;6.60;;;21.80;43.30;;;;;;10473966;28;20291;-77
2023/07/24 08:29:18;;;;;;;8.43;6.27;;;21.70;42.40;;;;;;10478066;28;20225;-76
2023/07/24 08:34:23;;;;;;;7.20;6.50;;;21.60;42.60;;;;;;10466336;28;20789;-75
2023/07/24 08:39:26;;;;;;;7.77;6.97;;;21.60;43.90;;;;;;10476058;28;20722;-77
2023/07/24 08:44:31;;;;;;;6.80;6.10;;;21.50;43.20;;;;;;10475493;28;20231;-76
2023/07/24 08:49:37;;;;;;;6.23;5.63;;;21.50;43.60;;;;;;10476803;28;20225;-77
2023/07/24 08:54:41;;;;;;;6.27;5.53;;;21.50;44.30;;;;;;10469914;28;20301;-77
2023/07/24 08:59:44;;;;;;;6.47;5.70;;;21.60;43.10;;;;;;10475198;28;20675;-77
2023/07/24 09:04:48;;;;;;;6.40;5.80;;;21.70;43.20;;;;;;10472636;28;20429;-77
2023/07/24 09:09:52;;;;;;;8.50;6.37;;;21.80;44.30;;;;;;10475471;28;20228;-77
2023/07/24 09:15:04;;;;;;;6.57;5.87;;;21.80;43.30;;;;;;10469888;28;20293;-76
2023/07/24 09:20:11;;;;;;;7.17;6.47;;;22.00;46.80;;;;;;10476369;28;20310;-76
2023/07/24 09:25:14;;;;;;;6.67;6.07;;;22.20;46.20;;;;;;10471225;28;20243;-77
2023/07/24 09:30:23;;;;;;;7.03;6.03;;;22.40;44.50;;;;;;10475157;28;20758;-76
2023/07/24 09:35:28;;;;;;;7.73;6.60;;;22.70;44.90;;;;;;10467713;28;20926;-77
2023/07/24 09:40:40;;;;;;;6.70;6.10;;;23.00;45.30;;;;;;10474102;28;20239;-77
2023/07/24 09:45:45;;;;;;;6.57;5.93;;;23.20;45.80;;;;;;10464045;28;20227;-76
2023/07/24 09:50:53;;;;;;;7.00;6.30;;;23.60;44.80;;;;;;10466798;28;20297;-76
2023/07/24 09:55:59;;;;;;;6.63;5.60;;;23.90;46.60;;;;;;10473949;28;20235;-77
2023/07/24 10:01:05;;;;;;;6.10;5.50;;;24.20;45.80;;;;;;10460626;28;20228;-76
2023/07/24 10:06:11;;;;;;;6.10;5.50;;;24.50;44.00;;;;;;10463831;28;20716;-75
2023/07/24 10:11:15;;;;;;;6.77;6.07;;;24.70;43.50;;;;;;10464129;28;20239;-76
2023/07/24 10:16:18;;;;;;;7.50;5.93;;;24.80;43.00;;;;;;10462463;28;20307;-76
2023/07/24 10:21:29;;;;;;;7.33;6.60;;;24.80;42.80;;;;;;10479485;28;20245;-76
2023/07/24 10:26:36;;;;;;;6.33;5.73;;;24.70;43.80;;;;;;10462822;28;20327;-76
2023/07/24 10:31:40;;;;;;;7.40;6.23;;;24.60;43.90;;;;;;10473849;28;20580;-76
2023/07/24 10:36:45;;;;;;;6.60;5.90;;;24.50;43.10;;;;;;10465369;28;21062;-76
2023/07/24 10:41:48;;;;;;;7.17;5.43;;;24.40;43.50;;;;;;10469747;28;20224;-76
2023/07/24 10:46:52;;;;;;;6.47;5.87;;;24.40;43.20;;;;;;10469900;28;20297;-76
2023/07/24 10:51:58;;;;;;;7.97;6.13;;;24.50;43.50;;;;;;10471617;28;20684;-76
2023/07/24 10:57:01;;;;;;;6.70;5.97;;;24.50;43.80;;;;;;10473567;28;20282;-76
2023/07/24 11:02:05;;;;;;;6.90;5.70;;;24.50;43.20;;;;;;10466377;28;20485;-76
2023/07/24 11:07:10;;;;;;;6.63;5.90;;;24.60;43.80;;;;;;10467592;28;20343;-76
2023/07/24 11:12:14;;;;;;;6.10;5.50;;;24.70;43.50;;;;;;10470807;28;20308;-77
2023/07/24 11:17:18;;;;;;;6.30;5.70;;;24.80;42.80;;;;;;10473550;28;20233;-76
2023/07/24 11:22:24;;;;;;;6.47;5.47;;;24.90;42.30;;;;;;10469188;28;20336;-77
2023/07/24 11:27:27;;;;;;;5.63;5.03;;;25.00;42.60;;;;;;10470531;28;20698;-76
2023/07/24 11:32:30;;;;;;;6.00;5.43;;;25.10;42.00;;;;;;10472951;28;20728;-76
2023/07/24 11:37:36;;;;;;;5.70;5.10;;;25.20;42.10;;;;;;10471408;28;20255;-77
2023/07/24 11:42:40;;;;;;;5.53;5.03;;;25.30;42.30;;;;;;10483836;28;20228;-78
2023/07/24 11:47:44;;;;;;;6.03;5.53;;;25.40;41.70;;;;;;10469663;28;20339;-78
2023/07/24 11:52:51;;;;;;;5.47;4.97;;;25.70;41.30;;;;;;10475416;28;20220;-77
2023/07/24 11:57:57;;;;;;;6.27;5.67;;;25.90;41.40;;;;;;10478424;28;20295;-77
2023/07/24 12:03:01;;;;;;;5.77;5.17;;;26.00;40.90;;;;;;10477225;28;20228;-78
2023/07/24 12:08:06;;;;;;;6.83;5.00;;;26.20;40.80;;;;;;10466849;28;20255;-81
2023/07/24 12:13:09;;;;;;;7.20;5.20;;;26.20;40.30;;;;;;10460491;28;20323;-80
2023/07/24 12:18:13;;;;;;;5.80;5.30;;;26.30;39.70;;;;;;10453102;28;20224;-78
2023/07/24 12:23:18;;;;;;;5.57;5.07;;;26.30;39.50;;;;;;10452773;28;20310;-76
2023/07/24 12:28:21;;;;;;;5.67;5.10;;;26.30;40.30;;;;;;10456104;28;21026;-75
2023/07/24 12:33:24;;;;;;;8.30;5.83;;;26.20;40.30;;;;;;10449524;28;20225;-77
2023/07/24 12:38:30;;;;;;;6.33;5.53;;;26.10;40.50;;;;;;10449524;28;20931;-82
2023/07/24 12:43:33;;;;;;;5.77;5.20;;;25.90;42.00;;;;;;10478866;28;20267;-82
2023/07/24 12:48:36;;;;;;;5.60;4.93;;;25.60;40.50;;;;;;10468749;28;20237;-80
2023/07/24 12:53:41;;;;;;;6.83;4.43;;;25.20;40.70;;;;;;10456354;28;20709;-78
2023/07/24 12:58:54;;;;;;;4.77;4.37;;;24.90;40.80;;;;;;10460656;28;20281;-78
2023/07/24 13:03:57;;;;;;;5.00;4.50;;;24.60;40.80;;;;;;10465844;28;20228;-79
2023/07/24 13:09:02;;;;;;;4.50;4.10;;;24.50;41.60;;;;;;10472277;28;20800;-83
2023/07/24 13:14:06;;;;;;;5.43;4.93;;;24.40;42.20;;;;;;10466475;28;20244;-80
2023/07/24 13:19:09;;;;;;;5.43;4.93;;;24.30;42.20;;;;;;10459749;28;20311;-81
2023/07/24 13:24:13;;;;;;;4.60;4.20;;;24.20;42.50;;;;;;10462042;28;20599;-80
2023/07/24 13:29:17;;;;;;;5.50;5.00;;;24.10;43.90;;;;;;10464248;28;20307;-81
2023/07/24 13:34:20;;;;;;;4.87;4.47;;;24.10;43.20;;;;;;10469417;28;20269;-81
2023/07/24 13:39:27;;;;;;;5.40;4.90;;;24.20;43.30;;;;;;10468946;28;20319;-81
2023/07/24 13:44:30;;;;;;;5.83;5.00;;;24.20;43.20;;;;;;10472041;28;20238;-80
2023/07/24 13:49:33;;;;;;;5.10;4.63;;;24.20;42.70;;;;;;10471110;28;20599;-80
2023/07/24 13:54:37;;;;;;;5.50;5.00;;;24.10;42.70;;;;;;10469834;28;20303;-80
2023/07/24 13:59:40;;;;;;;5.10;4.60;;;24.10;43.70;;;;;;10466570;28;20220;-80
2023/07/24 14:04:44;;;;;;;5.37;4.80;;;24.10;43.00;;;;;;10468492;28;20764;-79
2023/07/24 14:09:49;;;;;;;5.97;5.00;;;24.20;43.00;;;;;;10479902;28;20220;-80
2023/07/24 14:14:52;;;;;;;5.20;4.70;;;24.30;43.00;;;;;;10465241;28;20222;-79
2023/07/24 14:19:55;;;;;;;5.47;4.80;;;24.30;42.70;;;;;;10475521;28;20220;-79
2023/07/24 14:24:59;;;;;;;5.37;4.87;;;24.40;43.60;;;;;;10473654;28;20950;-79
2023/07/24 14:30:03;;;;;;;5.37;4.60;;;24.40;42.60;;;;;;10467251;28;20300;-79
2023/07/24 14:35:07;;;;;;;4.33;3.93;;;24.40;42.60;;;;;;10469286;28;20292;-79
2023/07/24 14:40:13;;;;;;;4.30;3.87;;;24.40;42.90;;;;;;10479553;28;20231;-79
2023/07/24 14:45:16;;;;;;;4.90;4.50;;;24.40;42.90;;;;;;10484908;28;20236;-79
2023/07/24 14:50:19;;;;;;;4.70;4.30;;;24.60;43.10;;;;;;10477368;28;20304;-79
2023/07/24 14:55:24;;;;;;;4.00;3.63;;;24.70;42.90;;;;;;10487364;28;20228;-78
2023/07/24 15:00:29;;;;;;;4.60;3.83;;;24.90;42.70;;;;;;10487941;28;20224;-79
2023/07/24 15:05:32;;;;;;;4.20;3.80;;;24.90;42.60;;;;;;10484882;28;20236;-79
2023/07/24 15:10:37;;;;;;;4.77;3.43;;;25.00;41.70;;;;;;10485125;28;20801;-78
2023/07/24 15:15:40;;;;;;;3.70;3.40;;;25.10;41.70;;;;;;10476224;28;20228;-79
2023/07/24 15:20:43;;;;;;;4.27;3.80;;;25.20;41.20;;;;;;10481661;28;20242;-78
2023/07/24 15:25:47;;;;;;;3.60;3.30;;;25.20;41.40;;;;;;10479825;28;20234;-80
2023/07/24 15:30:51;;;;;;;3.90;3.60;;;25.20;41.00;;;;;;10478373;28;20315;-79
2023/07/24 15:35:54;;;;;;;3.93;3.57;;;25.30;41.10;;;;;;10477399;28;20738;-78
2023/07/24 15:40:58;;;;;;;3.97;3.67;;;25.40;41.20;;;;;;10480215;28;20332;-78
2023/07/24 15:46:02;;;;;;;3.50;3.20;;;25.40;41.20;;;;;;10477209;28;20312;-76
2023/07/24 15:51:05;;;;;;;4.10;3.70;;;25.50;40.60;;;;;;10483033;28;20230;-77
2023/07/24 15:56:11;;;;;;;3.80;3.50;;;25.40;40.50;;;;;;10485221;28;20224;-77
2023/07/24 16:01:15;;;;;;;3.83;3.50;;;25.30;41.10;;;;;;10484104;28;20232;-75
2023/07/24 16:06:18;;;;;;;5.03;3.43;;;25.20;40.80;;;;;;10471536;28;20233;-76
2023/07/24 16:11:22;;;;;;;3.17;2.73;;;25.00;40.50;;;;;;10477962;28;20367;-75
2023/07/24 16:16:26;;;;;;;3.17;2.93;;;24.70;40.60;;;;;;10479985;28;20248;-76
2023/07/24 16:21:30;;;;;;;3.20;2.90;;;24.30;40.30;;;;;;10465961;28;20243;-77
2023/07/24 16:26:36;;;;;;;3.07;2.87;;;24.10;40.70;;;;;;10474270;28;20236;-76
2023/07/24 16:31:40;;;;;;;3.50;3.07;;;24.00;42.00;;;;;;10473505;28;20231;-76
2023/07/24 16:36:44;;;;;;;3.73;3.20;;;23.90;41.80;;;;;;10475667;28;20246;-76
2023/07/24 16:41:49;;;;;;;4.10;3.70;;;23.80;42.00;;;;;;10479704;28;20778;-76
2023/07/24 16:46:53;;;;;;;4.43;3.07;;;23.80;42.80;;;;;;10480899;28;20224;-76
2023/07/24 16:52:14;;;;;;;3.50;3.20;;;23.70;42.50;;;;;;10479717;28;20235;-77
2023/07/24 16:57:18;;;;;;;3.20;2.90;;;23.70;42.60;;;;;;10476851;28;20230;-76
2023/07/24 17:02:22;;;;;;;3.77;2.93;;;23.80;42.90;;;;;;10479923;28;20255;-76
2023/07/24 17:07:25;;;;;;;3.23;2.93;;;23.90;42.70;;;;;;10475629;28;21063;-76
2023/07/24 17:12:30;;;;;;;3.57;3.00;;;24.00;42.60;;;;;;10473242;28;20227;-78
2023/07/24 17:17:33;;;;;;;3.30;3.07;;;24.10;42.50;;;;;;10477150;28;20263;-76
2023/07/24 17:22:37;;;;;;;3.30;3.00;;;24.20;42.10;;;;;;10472382;28;20242;-77
2023/07/24 17:27:49;;;;;;;3.07;2.77;;;24.10;42.30;;;;;;10475740;28;20224;-78
2023/07/24 17:32:53;;;;;;;3.23;2.93;;;24.20;43.80;;;;;;10492163;28;20709;-79
2023/07/24 17:37:56;;;;;;;3.37;3.07;;;24.30;42.40;;;;;;10491062;28;20232;-79
2023/07/24 17:43:00;;;;;;;3.77;3.23;;;24.40;42.30;;;;;;10490672;28;20787;-79
2023/07/24 17:48:05;;;;;;;3.20;2.90;;;24.50;42.40;;;;;;10491652;28;20720;-78
2023/07/24 17:53:08;;;;;;;3.07;2.80;;;24.60;42.00;;;;;;10493044;28;20282;-78
2023/07/24 17:58:12;;;;;;;3.23;3.00;;;24.50;42.00;;;;;;10492477;28;20315;-80
2023/07/24 18:03:18;;;;;;;5.43;3.47;;;24.30;42.70;;;;;;10492109;28;20605;-79
2023/07/24 18:08:21;;;;;;;4.83;3.60;;;24.20;43.20;;;;;;10492663;28;20278;-79
2023/07/24 18:13:25;;;;;;;4.00;3.50;;;24.10;43.10;;;;;;10498281;28;20315;-79
2023/07/24 18:18:29;;;;;;;3.80;3.50;;;23.90;43.70;;;;;;10498991;28;20303;-79
2023/07/24 18:23:32;;;;;;;3.73;3.43;;;23.90;43.60;;;;;;10499898;28;20340;-78
2023/07/24 18:28:41;;;;;;;3.70;3.30;;;23.90;43.80;;;;;;10497296;28;20399;-79
2023/07/24 18:33:44;;;;;;;4.47;3.10;;;23.80;44.00;;;;;;10484937;28;20601;-76
2023/07/24 18:38:47;;;;;;;3.67;3.37;;;23.80;43.60;;;;;;10479463;28;20271;-76
2023/07/24 18:43:52;;;;;;;3.30;3.00;;;23.80;43.60;;;;;;10472968;28;20250;-79
2023/07/24 18:48:55;;;;;;;3.30;3.00;;;23.70;43.80;;;;;;10478541;28;20232;-77
2023/07/24 18:53:58;;;;;;;3.77;3.07;;;23.60;43.60;;;;;;10471019;28;20224;-77
2023/07/24 18:59:04;;;;;;;3.40;3.10;;;23.60;43.90;;;;;;10461382;28;20235;-77
2023/07/24 19:04:07;;;;;;;4.03;3.10;;;23.50;44.40;;;;;;10471427;28;20628;-79
2023/07/24 19:09:11;;;;;;;3.77;3.47;;;23.50;44.00;;;;;;10474382;28;20282;-78
2023/07/24 19:14:15;;;;;;;3.33;2.73;;;23.50;44.10;;;;;;10475241;28;20287;-79
2023/07/24 19:19:19;;;;;;;4.27;2.90;;;23.40;44.60;;;;;;10460224;28;20237;-76
2023/07/24 19:24:22;;;;;;;5.50;2.70;;;23.30;44.20;;;;;;10470172;28;20233;-75
2023/07/24 19:29:27;;;;;;;3.23;2.93;;;23.30;44.20;;;;;;10465493;28;20607;-74
2023/07/24 19:34:30;;;;;;;2.93;2.73;;;23.30;44.70;;;;;;10471073;28;20846;-75
2023/07/24 19:39:33;;;;;;;3.63;3.00;;;23.30;44.20;;;;;;10469008;28;21036;-75
2023/07/24 19:44:38;;;;;;;3.63;3.10;;;23.30;44.40;;;;;;10470787;28;20327;-75
2023/07/24 19:49:41;;;;;;;3.13;2.90;;;23.30;44.70;;;;;;10472942;28;20224;-74
2023/07/24 19:54:45;;;;;;;4.40;2.80;;;23.40;44.30;;;;;;10465214;28;20311;-74
2023/07/24 19:59:49;;;;;;;3.83;3.10;;;23.50;44.10;;;;;;10478909;28;20251;-75
2023/07/24 20:04:53;;;;;;;3.70;2.90;;;23.50;44.40;;;;;;10475344;28;20228;-77
2023/07/24 20:09:57;;;;;;;3.30;3.00;;;23.50;44.00;;;;;;10463341;28;20237;-78
2023/07/24 20:15:03;;;;;;;2.93;2.73;;;23.50;44.00;;;;;;10449959;28;20331;-77
2023/07/24 20:20:08;;;;;;;3.60;3.30;;;23.50;44.10;;;;;;10457559;28;20340;-77
2023/07/24 20:25:11;;;;;;;3.80;3.00;;;23.50;43.80;;;;;;10461600;28;20225;-77
2023/07/24 20:30:16;;;;;;;3.40;3.00;;;23.50;43.70;;;;;;10466851;28;20248;-78
2023/07/24 20:35:19;;;;;;;3.40;3.10;;;23.40;44.00;;;;;;10463857;28;20228;-77
2023/07/24 20:40:22;;;;;;;4.63;3.00;;;23.30;43.70;;;;;;10472047;28;21034;-76
2023/07/24 20:45:27;;;;;;;4.10;3.27;;;23.20;43.90;;;;;;10472426;28;20233;-77
2023/07/24 20:50:30;;;;;;;3.43;3.13;;;23.10;44.30;;;;;;10467850;28;20241;-77
2023/07/24 20:55:33;;;;;;;3.97;3.53;;;23.10;44.10;;;;;;10473150;28;20813;-77
2023/07/24 21:00:38;;;;;;;3.90;3.10;;;22.90;43.80;;;;;;10475697;28;20310;-77
2023/07/24 21:05:42;;;;;;;3.87;3.10;;;22.90;44.20;;;;;;10472944;28;20307;-77
2023/07/24 21:10:45;;;;;;;3.27;2.97;;;22.80;44.00;;;;;;10469121;28;21063;-76
2023/07/24 21:15:51;;;;;;;3.50;3.20;;;22.70;44.10;;;;;;10468395;28;21315;-76
2023/07/24 21:20:54;;;;;;;3.33;3.03;;;22.70;44.30;;;;;;10468759;28;20220;-76
2023/07/24 21:25:58;;;;;;;3.83;2.90;;;22.80;44.30;;;;;;10480746;28;20274;-76
2023/07/24 21:31:09;;;;;;;4.70;3.50;;;22.80;44.30;;;;;;10472618;28;20621;-77
2023/07/24 21:36:12;;;;;;;4.40;3.20;;;22.80;44.60;;;;;;10479779;28;20232;-77
2023/07/24 21:41:16;;;;;;;3.53;3.23;;;22.90;44.20;;;;;;10473803;28;20234;-77
2023/07/24 21:46:22;;;;;;;5.10;3.33;;;23.00;44.00;;;;;;10481861;28;20233;-76
2023/07/24 21:51:26;;;;;;;3.00;2.80;;;23.00;44.30;;;;;;10469843;28;20230;-77
2023/07/24 21:56:29;;;;;;;3.30;3.00;;;23.00;44.00;;;;;;10478145;28;20716;-76
2023/07/24 22:01:33;;;;;;;4.67;3.20;;;23.00;44.00;;;;;;10470900;28;20221;-76
2023/07/24 22:06:37;;;;;;;5.33;3.17;;;22.90;44.30;;;;;;10466208;28;20232;-77
2023/07/24 22:11:41;;;;;;;4.03;3.13;;;22.80;44.10;;;;;;10467735;28;20779;-77
2023/07/24 22:16:45;;;;;;;3.27;2.97;;;22.70;44.30;;;;;;10476395;28;20731;-76
2023/07/24 22:21:49;;;;;;;3.50;3.20;;;22.60;44.80;;;;;;10467452;28;20220;-77
2023/07/24 22:26:52;;;;;;;3.47;3.17;;;22.50;44.40;;;;;;10481484;28;20251;-76
2023/07/24 22:31:56;;;;;;;3.80;3.37;;;22.50;44.50;;;;;;10472858;28;20238;-77
2023/07/24 22:37:00;;;;;;;4.00;3.17;;;22.40;44.80;;;;;;10470274;28;20243;-76
2023/07/24 22:42:03;;;;;;;3.60;3.30;;;22.30;44.60;;;;;;10475939;28;20217;-76
2023/07/24 22:47:08;;;;;;;3.57;3.23;;;22.20;44.90;;;;;;10474717;28;20238;-77
2023/07/24 22:52:11;;;;;;;5.50;3.27;;;22.00;45.50;;;;;;10472431;28;20217;-76
2023/07/24 22:57:14;;;;;;;3.40;3.10;;;21.90;45.10;;;;;;10467803;28;20236;-76
2023/07/24 23:02:19;;;;;;;3.67;3.27;;;21.90;45.30;;;;;;10469389;28;20222;-76
2023/07/24 23:07:22;;;;;;;4.43;3.13;;;21.80;45.80;;;;;;10486975;28;20308;-76
2023/07/24 23:12:25;;;;;;;3.37;3.13;;;21.70;45.40;;;;;;10485024;28;20248;-76
2023/07/24 23:17:30;;;;;;;4.33;3.30;;;21.70;45.50;;;;;;10475393;28;20283;-76
2023/07/24 23:22:33;;;;;;;4.80;3.23;;;21.60;45.90;;;;;;10483689;28;20229;-76
2023/07/24 23:27:36;;;;;;;3.10;2.87;;;21.60;45.40;;;;;;10485377;28;20797;-76
2023/07/24 23:32:41;;;;;;;3.07;2.77;;;21.60;45.40;;;;;;10481070;28;20220;-75
2023/07/24 23:37:44;;;;;;;3.67;2.73;;;21.60;45.70;;;;;;10478930;28;20255;-76
2023/07/24 23:42:47;;;;;;;4.07;2.83;;;21.60;45.20;;;;;;10472632;28;20225;-75
2023/07/24 23:47:52;;;;;;;4.63;3.30;;;21.60;45.30;;;;;;10477614;28;20486;-76
2023/07/24 23:52:55;;;;;;;3.40;3.10;;;21.60;45.60;;;;;;10483950;28;20216;-76
2023/07/24 23:58:01;;;;;;;5.20;3.30;;;21.50;45.40;;;;;;10483792;28;20240;-76
